sensor_id;sensor_type;location;lat;lon;timestamp;P1;durP1;ratioP1;P2;durP2;ratioP2
48935;SDS011;34745;52.276;10.528;2023-05-02T00:01:19;8.20;;;5.10;;
48935;SDS011;34745;52.276;10.528;2023-05-02T00:03:46;8.20;;;4.43;;
48935;SDS011;34745;52.276;10.528;2023-05-02T00:06:14;9.10;;;4.30;;
48935;SDS011;34745;52.276;10.528;2023-05-02T00:08:41;12.03;;;4.30;;
48935;SDS011;34745;52.276;10.528;2023-05-02T00:11:09;7.80;;;4.60;;
48935;SDS011;34745;52.276;10.528;2023-05-02T00:13:36;7.67;;;4.40;;
48935;SDS011;34745;52.276;10.528;2023-05-02T00:16:04;8.33;;;4.90;;
48935;SDS011;34745;52.276;10.528;2023-05-02T00:18:31;9.40;;;4.90;;
48935;SDS011;34745;52.276;10.528;2023-05-02T00:20:59;8.87;;;5.27;;
48935;SDS011;34745;52.276;10.528;2023-05-02T00:23:26;7.03;;;4.80;;
48935;SDS011;34745;52.276;10.528;2023-05-02T00:25:53;8.17;;;5.30;;
48935;SDS011;34745;52.276;10.528;2023-05-02T00:28:22;10.10;;;5.00;;
48935;SDS011;34745;52.276;10.528;2023-05-02T00:30:49;13.27;;;5.33;;
48935;SDS011;34745;52.276;10.528;2023-05-02T00:33:16;12.13;;;5.10;;
48935;SDS011;34745;52.276;10.528;2023-05-02T00:35:43;12.33;;;5.93;;
48935;SDS011;34745;52.276;10.528;2023-05-02T00:38:10;10.00;;;5.37;;
48935;SDS011;34745;52.276;10.528;2023-05-02T00:40:44;7.23;;;4.97;;
48935;SDS011;34745;52.276;10.528;2023-05-02T00:43:12;9.27;;;5.00;;
48935;SDS011;34745;52.276;10.528;2023-05-02T00:45:40;6.87;;;4.80;;
48935;SDS011;34745;52.276;10.528;2023-05-02T00:48:09;6.13;;;4.50;;
48935;SDS011;34745;52.276;10.528;2023-05-02T00:50:37;8.00;;;4.80;;
48935;SDS011;34745;52.276;10.528;2023-05-02T00:53:07;6.90;;;4.90;;
48935;SDS011;34745;52.276;10.528;2023-05-02T00:55:35;9.27;;;4.40;;
48935;SDS011;34745;52.276;10.528;2023-05-02T00:58:04;8.20;;;4.60;;
48935;SDS011;34745;52.276;10.528;2023-05-02T01:00:37;8.97;;;4.57;;
48935;SDS011;34745;52.276;10.528;2023-05-02T01:03:16;6.47;;;4.20;;
48935;SDS011;34745;52.276;10.528;2023-05-02T01:05:52;6.60;;;4.17;;
48935;SDS011;34745;52.276;10.528;2023-05-02T01:08:32;8.20;;;4.43;;
48935;SDS011;34745;52.276;10.528;2023-05-02T01:11:10;6.67;;;4.20;;
48935;SDS011;34745;52.276;10.528;2023-05-02T01:13:41;7.87;;;4.40;;
48935;SDS011;34745;52.276;10.528;2023-05-02T01:16:11;7.77;;;4.50;;
48935;SDS011;34745;52.276;10.528;2023-05-02T01:18:41;6.53;;;4.37;;
48935;SDS011;34745;52.276;10.528;2023-05-02T01:21:10;6.80;;;4.80;;
48935;SDS011;34745;52.276;10.528;2023-05-02T01:23:40;6.97;;;4.60;;
48935;SDS011;34745;52.276;10.528;2023-05-02T01:26:14;5.20;;;4.10;;
48935;SDS011;34745;52.276;10.528;2023-05-02T01:28:53;7.00;;;4.60;;
48935;SDS011;34745;52.276;10.528;2023-05-02T01:31:23;7.97;;;4.83;;
48935;SDS011;34745;52.276;10.528;2023-05-02T01:33:53;4.97;;;4.17;;
48935;SDS011;34745;52.276;10.528;2023-05-02T01:36:22;7.33;;;5.00;;
48935;SDS011;34745;52.276;10.528;2023-05-02T01:38:53;9.67;;;4.37;;
48935;SDS011;34745;52.276;10.528;2023-05-02T01:41:21;11.87;;;4.70;;
48935;SDS011;34745;52.276;10.528;2023-05-02T01:43:54;5.63;;;4.23;;
48935;SDS011;34745;52.276;10.528;2023-05-02T01:46:24;6.63;;;4.53;;
48935;SDS011;34745;52.276;10.528;2023-05-02T01:48:52;9.50;;;4.77;;
48935;SDS011;34745;52.276;10.528;2023-05-02T01:51:22;10.87;;;5.40;;
48935;SDS011;34745;52.276;10.528;2023-05-02T01:53:55;7.27;;;4.80;;
48935;SDS011;34745;52.276;10.528;2023-05-02T01:56:43;9.37;;;4.70;;
48935;SDS011;34745;52.276;10.528;2023-05-02T01:59:14;7.53;;;4.60;;
48935;SDS011;34745;52.276;10.528;2023-05-02T02:01:43;5.57;;;4.47;;
48935;SDS011;34745;52.276;10.528;2023-05-02T02:04:12;5.27;;;4.50;;
48935;SDS011;34745;52.276;10.528;2023-05-02T02:06:43;5.23;;;4.73;;
48935;SDS011;34745;52.276;10.528;2023-05-02T02:09:14;6.33;;;4.90;;
48935;SDS011;34745;52.276;10.528;2023-05-02T02:11:42;8.67;;;5.47;;
48935;SDS011;34745;52.276;10.528;2023-05-02T02:14:16;9.83;;;5.07;;
48935;SDS011;34745;52.276;10.528;2023-05-02T02:16:46;8.77;;;5.07;;
48935;SDS011;34745;52.276;10.528;2023-05-02T02:19:16;8.93;;;5.00;;
48935;SDS011;34745;52.276;10.528;2023-05-02T02:21:44;6.57;;;4.70;;
48935;SDS011;34745;52.276;10.528;2023-05-02T02:24:13;8.33;;;4.87;;
48935;SDS011;34745;52.276;10.528;2023-05-02T02:26:42;9.20;;;5.57;;
48935;SDS011;34745;52.276;10.528;2023-05-02T02:29:09;9.90;;;5.37;;
48935;SDS011;34745;52.276;10.528;2023-05-02T02:31:38;9.03;;;5.30;;
48935;SDS011;34745;52.276;10.528;2023-05-02T02:34:05;11.97;;;5.73;;
48935;SDS011;34745;52.276;10.528;2023-05-02T02:36:33;7.17;;;5.43;;
48935;SDS011;34745;52.276;10.528;2023-05-02T02:39:09;11.47;;;5.37;;
48935;SDS011;34745;52.276;10.528;2023-05-02T02:41:46;9.57;;;5.57;;
48935;SDS011;34745;52.276;10.528;2023-05-02T02:44:23;7.20;;;5.30;;
48935;SDS011;34745;52.276;10.528;2023-05-02T02:46:59;8.63;;;5.93;;
48935;SDS011;34745;52.276;10.528;2023-05-02T02:49:37;8.63;;;5.87;;
48935;SDS011;34745;52.276;10.528;2023-05-02T02:52:16;8.60;;;6.30;;
48935;SDS011;34745;52.276;10.528;2023-05-02T02:54:50;9.40;;;6.50;;
48935;SDS011;34745;52.276;10.528;2023-05-02T02:57:23;15.83;;;7.17;;
48935;SDS011;34745;52.276;10.528;2023-05-02T02:59:58;9.83;;;6.57;;
48935;SDS011;34745;52.276;10.528;2023-05-02T03:02:32;9.20;;;6.73;;
48935;SDS011;34745;52.276;10.528;2023-05-02T03:05:02;10.73;;;7.13;;
48935;SDS011;34745;52.276;10.528;2023-05-02T03:07:32;13.87;;;6.90;;
48935;SDS011;34745;52.276;10.528;2023-05-02T03:10:01;10.23;;;7.03;;
48935;SDS011;34745;52.276;10.528;2023-05-02T03:12:29;12.67;;;7.27;;
48935;SDS011;34745;52.276;10.528;2023-05-02T03:14:58;10.33;;;6.97;;
48935;SDS011;34745;52.276;10.528;2023-05-02T03:17:35;10.83;;;7.17;;
48935;SDS011;34745;52.276;10.528;2023-05-02T03:20:03;12.87;;;7.40;;
48935;SDS011;34745;52.276;10.528;2023-05-02T03:22:31;15.13;;;7.53;;
48935;SDS011;34745;52.276;10.528;2023-05-02T03:24:58;10.77;;;7.53;;
48935;SDS011;34745;52.276;10.528;2023-05-02T03:27:25;12.03;;;8.63;;
48935;SDS011;34745;52.276;10.528;2023-05-02T03:29:52;11.33;;;8.67;;
48935;SDS011;34745;52.276;10.528;2023-05-02T03:32:19;11.87;;;8.70;;
48935;SDS011;34745;52.276;10.528;2023-05-02T03:34:47;12.97;;;9.03;;
48935;SDS011;34745;52.276;10.528;2023-05-02T03:37:14;16.77;;;9.37;;
48935;SDS011;34745;52.276;10.528;2023-05-02T03:39:41;20.77;;;10.20;;
48935;SDS011;34745;52.276;10.528;2023-05-02T03:42:10;13.43;;;8.80;;
48935;SDS011;34745;52.276;10.528;2023-05-02T03:44:37;12.10;;;9.57;;
48935;SDS011;34745;52.276;10.528;2023-05-02T03:47:04;14.23;;;10.00;;
48935;SDS011;34745;52.276;10.528;2023-05-02T03:49:32;11.17;;;9.27;;
48935;SDS011;34745;52.276;10.528;2023-05-02T03:52:01;12.33;;;10.10;;
48935;SDS011;34745;52.276;10.528;2023-05-02T03:54:30;16.13;;;11.20;;
48935;SDS011;34745;52.276;10.528;2023-05-02T03:56:57;20.17;;;11.27;;
48935;SDS011;34745;52.276;10.528;2023-05-02T03:59:25;14.60;;;11.80;;
48935;SDS011;34745;52.276;10.528;2023-05-02T04:01:53;17.43;;;11.70;;
48935;SDS011;34745;52.276;10.528;2023-05-02T04:04:20;18.80;;;12.57;;
48935;SDS011;34745;52.276;10.528;2023-05-02T04:06:48;19.33;;;13.57;;
48935;SDS011;34745;52.276;10.528;2023-05-02T04:09:21;19.60;;;14.77;;
48935;SDS011;34745;52.276;10.528;2023-05-02T04:11:51;21.57;;;14.17;;
48935;SDS011;34745;52.276;10.528;2023-05-02T04:14:18;21.90;;;15.17;;
48935;SDS011;34745;52.276;10.528;2023-05-02T04:16:47;20.97;;;15.47;;
48935;SDS011;34745;52.276;10.528;2023-05-02T04:19:14;22.93;;;16.43;;
48935;SDS011;34745;52.276;10.528;2023-05-02T04:21:41;22.10;;;16.10;;
48935;SDS011;34745;52.276;10.528;2023-05-02T04:24:08;25.40;;;17.30;;
48935;SDS011;34745;52.276;10.528;2023-05-02T04:26:37;23.90;;;18.00;;
48935;SDS011;34745;52.276;10.528;2023-05-02T04:29:04;26.07;;;18.37;;
48935;SDS011;34745;52.276;10.528;2023-05-02T04:31:31;26.43;;;18.73;;
48935;SDS011;34745;52.276;10.528;2023-05-02T04:33:59;32.10;;;18.30;;
48935;SDS011;34745;52.276;10.528;2023-05-02T04:36:26;29.60;;;19.67;;
48935;SDS011;34745;52.276;10.528;2023-05-02T04:38:55;25.93;;;19.40;;
48935;SDS011;34745;52.276;10.528;2023-05-02T04:41:23;27.80;;;19.63;;
48935;SDS011;34745;52.276;10.528;2023-05-02T04:43:52;27.83;;;20.47;;
48935;SDS011;34745;52.276;10.528;2023-05-02T04:46:19;29.27;;;20.60;;
48935;SDS011;34745;52.276;10.528;2023-05-02T04:48:46;26.97;;;20.37;;
48935;SDS011;34745;52.276;10.528;2023-05-02T04:51:13;34.23;;;20.33;;
48935;SDS011;34745;52.276;10.528;2023-05-02T04:53:42;28.93;;;20.50;;
48935;SDS011;34745;52.276;10.528;2023-05-02T04:56:09;41.47;;;21.50;;
48935;SDS011;34745;52.276;10.528;2023-05-02T04:58:36;31.57;;;21.13;;
48935;SDS011;34745;52.276;10.528;2023-05-02T05:01:05;30.53;;;20.83;;
48935;SDS011;34745;52.276;10.528;2023-05-02T05:03:31;31.00;;;21.07;;
48935;SDS011;34745;52.276;10.528;2023-05-02T05:05:59;30.40;;;20.73;;
48935;SDS011;34745;52.276;10.528;2023-05-02T05:08:26;28.87;;;20.83;;
48935;SDS011;34745;52.276;10.528;2023-05-02T05:10:53;31.13;;;20.40;;
48935;SDS011;34745;52.276;10.528;2023-05-02T05:13:20;30.70;;;21.00;;
48935;SDS011;34745;52.276;10.528;2023-05-02T05:15:47;29.73;;;20.87;;
48935;SDS011;34745;52.276;10.528;2023-05-02T05:18:17;28.07;;;20.07;;
48935;SDS011;34745;52.276;10.528;2023-05-02T05:20:44;31.27;;;21.03;;
48935;SDS011;34745;52.276;10.528;2023-05-02T05:23:12;30.13;;;20.47;;
48935;SDS011;34745;52.276;10.528;2023-05-02T05:25:39;29.10;;;20.90;;
48935;SDS011;34745;52.276;10.528;2023-05-02T05:28:11;31.53;;;20.33;;
48935;SDS011;34745;52.276;10.528;2023-05-02T05:30:39;33.13;;;20.40;;
48935;SDS011;34745;52.276;10.528;2023-05-02T05:33:06;37.70;;;21.27;;
48935;SDS011;34745;52.276;10.528;2023-05-02T05:35:35;35.17;;;21.83;;
48935;SDS011;34745;52.276;10.528;2023-05-02T05:38:01;31.77;;;21.67;;
48935;SDS011;34745;52.276;10.528;2023-05-02T05:40:29;33.33;;;21.50;;
48935;SDS011;34745;52.276;10.528;2023-05-02T05:42:55;32.97;;;21.37;;
48935;SDS011;34745;52.276;10.528;2023-05-02T05:45:23;29.23;;;20.80;;
48935;SDS011;34745;52.276;10.528;2023-05-02T05:47:50;30.87;;;20.50;;
48935;SDS011;34745;52.276;10.528;2023-05-02T05:50:19;31.67;;;21.07;;
48935;SDS011;34745;52.276;10.528;2023-05-02T05:52:47;27.87;;;19.20;;
48935;SDS011;34745;52.276;10.528;2023-05-02T05:55:14;27.90;;;19.00;;
48935;SDS011;34745;52.276;10.528;2023-05-02T05:57:41;31.80;;;19.00;;
48935;SDS011;34745;52.276;10.528;2023-05-02T06:00:09;25.33;;;18.07;;
48935;SDS011;34745;52.276;10.528;2023-05-02T06:02:36;29.17;;;18.00;;
48935;SDS011;34745;52.276;10.528;2023-05-02T06:05:04;29.93;;;17.47;;
48935;SDS011;34745;52.276;10.528;2023-05-02T06:07:31;23.17;;;14.50;;
48935;SDS011;34745;52.276;10.528;2023-05-02T06:10:00;23.90;;;15.50;;
48935;SDS011;34745;52.276;10.528;2023-05-02T06:12:27;25.33;;;15.63;;
48935;SDS011;34745;52.276;10.528;2023-05-02T06:14:55;23.67;;;15.23;;
48935;SDS011;34745;52.276;10.528;2023-05-02T06:17:22;22.13;;;15.00;;
48935;SDS011;34745;52.276;10.528;2023-05-02T06:19:49;18.83;;;13.67;;
48935;SDS011;34745;52.276;10.528;2023-05-02T06:22:16;16.90;;;11.93;;
48935;SDS011;34745;52.276;10.528;2023-05-02T06:24:43;16.17;;;11.40;;
48935;SDS011;34745;52.276;10.528;2023-05-02T06:27:12;15.67;;;10.40;;
48935;SDS011;34745;52.276;10.528;2023-05-02T06:29:39;14.43;;;10.20;;
48935;SDS011;34745;52.276;10.528;2023-05-02T06:32:06;9.37;;;6.30;;
48935;SDS011;34745;52.276;10.528;2023-05-02T06:34:34;6.77;;;5.37;;
48935;SDS011;34745;52.276;10.528;2023-05-02T06:37:01;6.13;;;5.10;;
48935;SDS011;34745;52.276;10.528;2023-05-02T06:39:28;5.00;;;4.43;;
48935;SDS011;34745;52.276;10.528;2023-05-02T06:41:56;4.73;;;3.30;;
48935;SDS011;34745;52.276;10.528;2023-05-02T06:44:25;3.47;;;2.57;;
48935;SDS011;34745;52.276;10.528;2023-05-02T06:46:52;3.17;;;2.50;;
48935;SDS011;34745;52.276;10.528;2023-05-02T06:49:21;5.77;;;2.87;;
48935;SDS011;34745;52.276;10.528;2023-05-02T06:51:48;4.93;;;3.10;;
48935;SDS011;34745;52.276;10.528;2023-05-02T06:54:16;3.93;;;2.63;;
48935;SDS011;34745;52.276;10.528;2023-05-02T06:56:43;5.43;;;2.67;;
48935;SDS011;34745;52.276;10.528;2023-05-02T06:59:10;3.70;;;2.70;;
48935;SDS011;34745;52.276;10.528;2023-05-02T07:01:39;4.03;;;2.70;;
48935;SDS011;34745;52.276;10.528;2023-05-02T07:04:07;6.03;;;3.00;;
48935;SDS011;34745;52.276;10.528;2023-05-02T07:06:34;6.47;;;2.70;;
48935;SDS011;34745;52.276;10.528;2023-05-02T07:09:01;3.97;;;2.53;;
48935;SDS011;34745;52.276;10.528;2023-05-02T07:11:28;3.33;;;2.60;;
48935;SDS011;34745;52.276;10.528;2023-05-02T07:13:56;4.23;;;3.20;;
48935;SDS011;34745;52.276;10.528;2023-05-02T07:16:23;7.27;;;3.20;;
48935;SDS011;34745;52.276;10.528;2023-05-02T07:18:51;9.37;;;2.93;;
48935;SDS011;34745;52.276;10.528;2023-05-02T07:21:19;9.00;;;3.20;;
48935;SDS011;34745;52.276;10.528;2023-05-02T07:23:46;8.17;;;2.90;;
48935;SDS011;34745;52.276;10.528;2023-05-02T07:26:13;4.93;;;2.90;;
48935;SDS011;34745;52.276;10.528;2023-05-02T07:28:40;8.20;;;2.90;;
48935;SDS011;34745;52.276;10.528;2023-05-02T07:31:08;9.03;;;3.00;;
48935;SDS011;34745;52.276;10.528;2023-05-02T07:33:35;11.40;;;3.47;;
48935;SDS011;34745;52.276;10.528;2023-05-02T07:36:04;14.47;;;3.33;;
48935;SDS011;34745;52.276;10.528;2023-05-02T07:38:31;12.43;;;4.00;;
48935;SDS011;34745;52.276;10.528;2023-05-02T07:40:58;12.47;;;3.80;;
48935;SDS011;34745;52.276;10.528;2023-05-02T07:43:26;10.73;;;3.83;;
48935;SDS011;34745;52.276;10.528;2023-05-02T07:45:53;15.57;;;5.00;;
48935;SDS011;34745;52.276;10.528;2023-05-02T07:48:21;14.97;;;5.57;;
48935;SDS011;34745;52.276;10.528;2023-05-02T07:50:52;15.80;;;4.23;;
48935;SDS011;34745;52.276;10.528;2023-05-02T07:53:20;17.70;;;6.13;;
48935;SDS011;34745;52.276;10.528;2023-05-02T07:55:48;24.03;;;6.03;;
48935;SDS011;34745;52.276;10.528;2023-05-02T07:58:14;12.33;;;4.00;;
48935;SDS011;34745;52.276;10.528;2023-05-02T08:00:42;19.30;;;4.60;;
48935;SDS011;34745;52.276;10.528;2023-05-02T08:03:09;14.30;;;3.73;;
48935;SDS011;34745;52.276;10.528;2023-05-02T08:05:36;16.00;;;4.03;;
48935;SDS011;34745;52.276;10.528;2023-05-02T08:08:04;10.03;;;3.80;;
48935;SDS011;34745;52.276;10.528;2023-05-02T08:10:32;12.70;;;3.33;;
48935;SDS011;34745;52.276;10.528;2023-05-02T08:12:59;13.33;;;3.73;;
48935;SDS011;34745;52.276;10.528;2023-05-02T08:15:27;12.47;;;4.13;;
48935;SDS011;34745;52.276;10.528;2023-05-02T08:17:55;13.40;;;3.53;;
48935;SDS011;34745;52.276;10.528;2023-05-02T08:20:23;12.87;;;3.97;;
48935;SDS011;34745;52.276;10.528;2023-05-02T08:22:50;16.30;;;4.13;;
48935;SDS011;34745;52.276;10.528;2023-05-02T08:25:17;20.67;;;4.07;;
48935;SDS011;34745;52.276;10.528;2023-05-02T08:27:46;15.47;;;4.57;;
48935;SDS011;34745;52.276;10.528;2023-05-02T08:30:13;13.23;;;3.63;;
48935;SDS011;34745;52.276;10.528;2023-05-02T08:32:40;13.90;;;3.73;;
48935;SDS011;34745;52.276;10.528;2023-05-02T08:35:08;16.50;;;3.87;;
48935;SDS011;34745;52.276;10.528;2023-05-02T08:37:35;21.87;;;4.73;;
48935;SDS011;34745;52.276;10.528;2023-05-02T08:40:03;19.53;;;5.03;;
48935;SDS011;34745;52.276;10.528;2023-05-02T08:42:31;14.47;;;4.47;;
48935;SDS011;34745;52.276;10.528;2023-05-02T08:45:01;11.53;;;3.87;;
48935;SDS011;34745;52.276;10.528;2023-05-02T08:47:29;19.80;;;4.53;;
48935;SDS011;34745;52.276;10.528;2023-05-02T08:49:58;20.40;;;4.77;;
48935;SDS011;34745;52.276;10.528;2023-05-02T08:52:26;17.67;;;4.30;;
48935;SDS011;34745;52.276;10.528;2023-05-02T08:54:55;15.63;;;3.90;;
48935;SDS011;34745;52.276;10.528;2023-05-02T08:57:22;15.10;;;3.87;;
48935;SDS011;34745;52.276;10.528;2023-05-02T08:59:50;26.50;;;4.83;;
48935;SDS011;34745;52.276;10.528;2023-05-02T09:02:21;16.63;;;4.23;;
48935;SDS011;34745;52.276;10.528;2023-05-02T09:05:04;19.67;;;4.70;;
48935;SDS011;34745;52.276;10.528;2023-05-02T09:07:41;18.67;;;4.90;;
48935;SDS011;34745;52.276;10.528;2023-05-02T09:10:11;12.77;;;3.83;;
48935;SDS011;34745;52.276;10.528;2023-05-02T09:12:38;16.20;;;4.53;;
48935;SDS011;34745;52.276;10.528;2023-05-02T09:15:07;14.43;;;3.97;;
48935;SDS011;34745;52.276;10.528;2023-05-02T09:17:43;17.50;;;5.17;;
48935;SDS011;34745;52.276;10.528;2023-05-02T09:20:13;22.93;;;4.37;;
48935;SDS011;34745;52.276;10.528;2023-05-02T09:22:46;18.97;;;3.77;;
48935;SDS011;34745;52.276;10.528;2023-05-02T09:25:15;17.43;;;4.30;;
48935;SDS011;34745;52.276;10.528;2023-05-02T09:27:49;12.30;;;3.90;;
48935;SDS011;34745;52.276;10.528;2023-05-02T09:30:18;16.20;;;4.27;;
48935;SDS011;34745;52.276;10.528;2023-05-02T09:32:48;20.43;;;4.00;;
48935;SDS011;34745;52.276;10.528;2023-05-02T09:35:17;14.40;;;4.03;;
48935;SDS011;34745;52.276;10.528;2023-05-02T09:37:49;12.77;;;3.33;;
48935;SDS011;34745;52.276;10.528;2023-05-02T09:40:18;17.23;;;3.97;;
48935;SDS011;34745;52.276;10.528;2023-05-02T09:42:45;17.30;;;3.40;;
48935;SDS011;34745;52.276;10.528;2023-05-02T09:45:20;5.83;;;3.13;;
48935;SDS011;34745;52.276;10.528;2023-05-02T09:47:49;11.03;;;2.40;;
48935;SDS011;34745;52.276;10.528;2023-05-02T09:50:33;7.70;;;2.57;;
48935;SDS011;34745;52.276;10.528;2023-05-02T09:53:03;12.57;;;3.00;;
48935;SDS011;34745;52.276;10.528;2023-05-02T09:55:31;8.00;;;2.97;;
48935;SDS011;34745;52.276;10.528;2023-05-02T09:57:58;5.50;;;2.37;;
48935;SDS011;34745;52.276;10.528;2023-05-02T10:00:39;8.30;;;2.40;;
48935;SDS011;34745;52.276;10.528;2023-05-02T10:03:10;7.60;;;2.50;;
48935;SDS011;34745;52.276;10.528;2023-05-02T10:05:42;8.37;;;2.50;;
48935;SDS011;34745;52.276;10.528;2023-05-02T10:08:10;6.40;;;2.47;;
48935;SDS011;34745;52.276;10.528;2023-05-02T10:10:39;14.23;;;2.43;;
48935;SDS011;34745;52.276;10.528;2023-05-02T10:13:10;8.23;;;2.37;;
48935;SDS011;34745;52.276;10.528;2023-05-02T10:15:41;7.77;;;3.40;;
48935;SDS011;34745;52.276;10.528;2023-05-02T10:18:15;7.67;;;2.47;;
48935;SDS011;34745;52.276;10.528;2023-05-02T10:20:47;8.37;;;2.53;;
48935;SDS011;34745;52.276;10.528;2023-05-02T10:23:24;11.87;;;3.13;;
48935;SDS011;34745;52.276;10.528;2023-05-02T10:25:53;9.07;;;3.00;;
48935;SDS011;34745;52.276;10.528;2023-05-02T10:28:22;12.00;;;3.03;;
48935;SDS011;34745;52.276;10.528;2023-05-02T10:30:51;10.50;;;2.80;;
48935;SDS011;34745;52.276;10.528;2023-05-02T10:33:21;8.53;;;3.00;;
48935;SDS011;34745;52.276;10.528;2023-05-02T10:35:49;12.70;;;2.90;;
48935;SDS011;34745;52.276;10.528;2023-05-02T10:38:18;6.70;;;2.53;;
48935;SDS011;34745;52.276;10.528;2023-05-02T10:40:50;7.90;;;2.80;;
48935;SDS011;34745;52.276;10.528;2023-05-02T10:43:22;9.13;;;3.40;;
48935;SDS011;34745;52.276;10.528;2023-05-02T10:45:51;6.43;;;2.60;;
48935;SDS011;34745;52.276;10.528;2023-05-02T10:48:22;10.37;;;3.10;;
48935;SDS011;34745;52.276;10.528;2023-05-02T10:50:53;5.80;;;2.10;;
48935;SDS011;34745;52.276;10.528;2023-05-02T10:53:29;8.00;;;2.80;;
48935;SDS011;34745;52.276;10.528;2023-05-02T10:56:13;3.37;;;2.10;;
48935;SDS011;34745;52.276;10.528;2023-05-02T10:58:42;8.30;;;2.53;;
48935;SDS011;34745;52.276;10.528;2023-05-02T11:04:05;15.43;;;2.90;;
48935;SDS011;34745;52.276;10.528;2023-05-02T11:06:34;7.27;;;2.70;;
48935;SDS011;34745;52.276;10.528;2023-05-02T11:11:59;9.93;;;2.63;;
48935;SDS011;34745;52.276;10.528;2023-05-02T11:14:46;6.60;;;2.77;;
48935;SDS011;34745;52.276;10.528;2023-05-02T11:17:14;9.93;;;2.27;;
48935;SDS011;34745;52.276;10.528;2023-05-02T11:22:51;10.13;;;2.57;;
48935;SDS011;34745;52.276;10.528;2023-05-02T11:25:33;7.73;;;2.30;;
48935;SDS011;34745;52.276;10.528;2023-05-02T11:28:06;5.03;;;2.50;;
48935;SDS011;34745;52.276;10.528;2023-05-02T11:30:53;9.83;;;3.00;;
48935;SDS011;34745;52.276;10.528;2023-05-02T11:33:22;10.17;;;2.87;;
48935;SDS011;34745;52.276;10.528;2023-05-02T11:35:49;8.27;;;2.67;;
48935;SDS011;34745;52.276;10.528;2023-05-02T11:38:18;8.37;;;2.63;;
48935;SDS011;34745;52.276;10.528;2023-05-02T11:40:53;9.30;;;2.90;;
48935;SDS011;34745;52.276;10.528;2023-05-02T11:43:21;10.67;;;3.30;;
48935;SDS011;34745;52.276;10.528;2023-05-02T11:45:51;6.80;;;3.13;;
48935;SDS011;34745;52.276;10.528;2023-05-02T11:48:19;10.87;;;3.30;;
48935;SDS011;34745;52.276;10.528;2023-05-02T11:50:48;7.50;;;2.77;;
48935;SDS011;34745;52.276;10.528;2023-05-02T11:53:18;9.80;;;3.27;;
48935;SDS011;34745;52.276;10.528;2023-05-02T11:55:50;10.67;;;2.93;;
48935;SDS011;34745;52.276;10.528;2023-05-02T11:58:19;8.03;;;2.83;;
48935;SDS011;34745;52.276;10.528;2023-05-02T12:00:47;15.87;;;3.33;;
48935;SDS011;34745;52.276;10.528;2023-05-02T12:03:28;7.53;;;3.33;;
48935;SDS011;34745;52.276;10.528;2023-05-02T12:05:56;10.73;;;3.30;;
48935;SDS011;34745;52.276;10.528;2023-05-02T12:08:38;7.00;;;3.20;;
48935;SDS011;34745;52.276;10.528;2023-05-02T12:11:05;13.93;;;2.90;;
48935;SDS011;34745;52.276;10.528;2023-05-02T12:13:33;12.60;;;3.60;;
48935;SDS011;34745;52.276;10.528;2023-05-02T12:16:00;18.17;;;6.03;;
48935;SDS011;34745;52.276;10.528;2023-05-02T12:18:27;13.63;;;3.50;;
48935;SDS011;34745;52.276;10.528;2023-05-02T12:20:55;12.93;;;4.23;;
48935;SDS011;34745;52.276;10.528;2023-05-02T12:23:23;10.50;;;3.67;;
48935;SDS011;34745;52.276;10.528;2023-05-02T12:25:55;10.10;;;4.67;;
48935;SDS011;34745;52.276;10.528;2023-05-02T12:28:22;10.33;;;4.30;;
48935;SDS011;34745;52.276;10.528;2023-05-02T12:30:49;10.07;;;3.73;;
48935;SDS011;34745;52.276;10.528;2023-05-02T12:33:17;8.90;;;3.47;;
48935;SDS011;34745;52.276;10.528;2023-05-02T12:35:44;9.37;;;3.47;;
48935;SDS011;34745;52.276;10.528;2023-05-02T12:38:13;8.80;;;3.17;;
48935;SDS011;34745;52.276;10.528;2023-05-02T12:40:48;13.37;;;3.60;;
48935;SDS011;34745;52.276;10.528;2023-05-02T12:43:17;10.40;;;3.17;;
48935;SDS011;34745;52.276;10.528;2023-05-02T12:45:45;15.40;;;3.53;;
48935;SDS011;34745;52.276;10.528;2023-05-02T12:48:17;7.50;;;3.17;;
48935;SDS011;34745;52.276;10.528;2023-05-02T12:50:49;5.87;;;2.90;;
48935;SDS011;34745;52.276;10.528;2023-05-02T12:53:17;8.03;;;3.37;;
48935;SDS011;34745;52.276;10.528;2023-05-02T12:56:02;15.27;;;3.73;;
48935;SDS011;34745;52.276;10.528;2023-05-02T12:58:37;11.47;;;3.63;;
48935;SDS011;34745;52.276;10.528;2023-05-02T13:01:07;17.57;;;6.20;;
48935;SDS011;34745;52.276;10.528;2023-05-02T13:03:34;12.27;;;5.10;;
48935;SDS011;34745;52.276;10.528;2023-05-02T13:06:02;10.80;;;3.73;;
48935;SDS011;34745;52.276;10.528;2023-05-02T13:08:30;13.00;;;5.03;;
48935;SDS011;34745;52.276;10.528;2023-05-02T13:10:58;8.30;;;3.53;;
48935;SDS011;34745;52.276;10.528;2023-05-02T13:13:25;17.47;;;4.80;;
48935;SDS011;34745;52.276;10.528;2023-05-02T13:15:54;12.80;;;5.80;;
48935;SDS011;34745;52.276;10.528;2023-05-02T13:18:22;10.45;;;3.72;;
48935;SDS011;34745;52.276;10.528;2023-05-02T13:20:49;10.45;;;3.45;;
48935;SDS011;34745;52.276;10.528;2023-05-02T13:23:16;6.50;;;3.70;;
48935;SDS011;34745;52.276;10.528;2023-05-02T13:25:43;11.55;;;3.45;;
48935;SDS011;34745;52.276;10.528;2023-05-02T13:28:11;10.95;;;3.50;;
48935;SDS011;34745;52.276;10.528;2023-05-02T13:30:37;11.60;;;3.72;;
48935;SDS011;34745;52.276;10.528;2023-05-02T13:33:06;7.88;;;3.10;;
48935;SDS011;34745;52.276;10.528;2023-05-02T13:35:33;10.23;;;3.40;;
48935;SDS011;34745;52.276;10.528;2023-05-02T13:38:00;11.13;;;3.30;;
48935;SDS011;34745;52.276;10.528;2023-05-02T13:40:28;7.97;;;3.25;;
48935;SDS011;34745;52.276;10.528;2023-05-02T13:42:56;11.90;;;3.20;;
48935;SDS011;34745;52.276;10.528;2023-05-02T13:45:23;6.30;;;3.05;;
48935;SDS011;34745;52.276;10.528;2023-05-02T13:47:50;11.02;;;3.30;;
48935;SDS011;34745;52.276;10.528;2023-05-02T13:50:18;14.63;;;3.20;;
48935;SDS011;34745;52.276;10.528;2023-05-02T13:52:45;9.63;;;3.35;;
48935;SDS011;34745;52.276;10.528;2023-05-02T13:55:14;18.65;;;3.55;;
48935;SDS011;34745;52.276;10.528;2023-05-02T13:57:42;7.22;;;2.85;;
48935;SDS011;34745;52.276;10.528;2023-05-02T14:00:09;8.20;;;2.80;;
48935;SDS011;34745;52.276;10.528;2023-05-02T14:02:37;7.63;;;2.67;;
48935;SDS011;34745;52.276;10.528;2023-05-02T14:05:05;5.30;;;2.63;;
48935;SDS011;34745;52.276;10.528;2023-05-02T14:07:34;7.82;;;2.80;;
48935;SDS011;34745;52.276;10.528;2023-05-02T14:10:01;10.77;;;3.22;;
48935;SDS011;34745;52.276;10.528;2023-05-02T14:12:29;7.95;;;3.25;;
48935;SDS011;34745;52.276;10.528;2023-05-02T14:14:57;6.68;;;3.10;;
48935;SDS011;34745;52.276;10.528;2023-05-02T14:17:24;7.75;;;2.78;;
48935;SDS011;34745;52.276;10.528;2023-05-02T14:19:52;10.05;;;3.17;;
48935;SDS011;34745;52.276;10.528;2023-05-02T14:22:19;8.27;;;2.33;;
48935;SDS011;34745;52.276;10.528;2023-05-02T14:24:47;9.55;;;2.70;;
48935;SDS011;34745;52.276;10.528;2023-05-02T14:27:15;5.70;;;2.75;;
48935;SDS011;34745;52.276;10.528;2023-05-02T14:29:45;6.65;;;2.90;;
48935;SDS011;34745;52.276;10.528;2023-05-02T14:32:13;6.13;;;2.88;;
48935;SDS011;34745;52.276;10.528;2023-05-02T14:34:40;4.45;;;2.70;;
48935;SDS011;34745;52.276;10.528;2023-05-02T14:37:07;6.43;;;2.83;;
48935;SDS011;34745;52.276;10.528;2023-05-02T14:39:34;7.65;;;2.70;;
48935;SDS011;34745;52.276;10.528;2023-05-02T14:42:04;7.82;;;2.70;;
48935;SDS011;34745;52.276;10.528;2023-05-02T14:44:31;5.70;;;2.50;;
48935;SDS011;34745;52.276;10.528;2023-05-02T14:46:58;6.90;;;2.77;;